sensor_id;sensor_type;location;lat;lon;timestamp;pressure;altitude;pressure_sealevel;temperature;humidity
37860;BME280;23698;52.014;5.190;2023-11-21T00:02:11;101005.81;;;17.68;100.00
37860;BME280;23698;52.014;5.190;2023-11-21T00:04:59;101001.72;;;17.47;100.00
37860;BME280;23698;52.014;5.190;2023-11-21T00:07:48;100994.63;;;17.69;100.00
37860;BME280;23698;52.014;5.190;2023-11-21T00:10:36;101012.81;;;18.06;100.00
37860;BME280;23698;52.014;5.190;2023-11-21T00:13:24;101012.97;;;17.69;100.00
37860;BME280;23698;52.014;5.190;2023-11-21T00:16:10;101018.22;;;17.70;100.00
37860;BME280;23698;52.014;5.190;2023-11-21T00:18:57;101018.16;;;17.89;100.00
37860;BME280;23698;52.014;5.190;2023-11-21T00:21:45;101018.59;;;17.74;100.00
37860;BME280;23698;52.014;5.190;2023-11-21T00:24:31;101019.75;;;17.54;100.00
37860;BME280;23698;52.014;5.190;2023-11-21T00:27:18;101024.09;;;17.44;100.00
37860;BME280;23698;52.014;5.190;2023-11-21T00:30:07;101014.25;;;17.24;100.00
37860;BME280;23698;52.014;5.190;2023-11-21T00:32:54;101024.16;;;17.25;100.00
37860;BME280;23698;52.014;5.190;2023-11-21T00:35:40;101024.38;;;17.24;100.00
37860;BME280;23698;52.014;5.190;2023-11-21T00:38:28;101027.03;;;17.30;100.00
37860;BME280;23698;52.014;5.190;2023-11-21T00:41:16;101021.50;;;17.18;100.00
37860;BME280;23698;52.014;5.190;2023-11-21T00:44:03;101023.66;;;17.16;100.00
37860;BME280;23698;52.014;5.190;2023-11-21T00:46:49;101028.31;;;17.28;100.00
37860;BME280;23698;52.014;5.190;2023-11-21T00:49:36;101035.34;;;17.24;100.00
37860;BME280;23698;52.014;5.190;2023-11-21T00:52:24;101034.00;;;17.45;100.00
37860;BME280;23698;52.014;5.190;2023-11-21T00:55:13;101030.81;;;17.48;100.00
37860;BME280;23698;52.014;5.190;2023-11-21T00:57:59;101034.38;;;17.18;100.00
37860;BME280;23698;52.014;5.190;2023-11-21T01:00:48;101038.16;;;17.35;100.00
37860;BME280;23698;52.014;5.190;2023-11-21T01:03:35;101044.22;;;17.80;100.00
37860;BME280;23698;52.014;5.190;2023-11-21T01:06:21;101048.44;;;17.52;100.00
37860;BME280;23698;52.014;5.190;2023-11-21T01:09:08;101053.59;;;17.60;100.00
37860;BME280;23698;52.014;5.190;2023-11-21T01:11:56;101054.19;;;17.62;100.00
37860;BME280;23698;52.014;5.190;2023-11-21T01:14:42;101061.81;;;17.60;100.00
37860;BME280;23698;52.014;5.190;2023-11-21T01:17:30;101062.69;;;17.72;100.00
37860;BME280;23698;52.014;5.190;2023-11-21T01:20:17;101066.47;;;17.60;100.00
37860;BME280;23698;52.014;5.190;2023-11-21T01:23:04;101070.44;;;17.33;100.00
37860;BME280;23698;52.014;5.190;2023-11-21T01:25:51;101070.06;;;17.60;100.00
37860;BME280;23698;52.014;5.190;2023-11-21T01:28:39;101053.50;;;17.36;100.00
37860;BME280;23698;52.014;5.190;2023-11-21T01:31:25;101069.28;;;17.23;100.00
37860;BME280;23698;52.014;5.190;2023-11-21T01:34:14;101077.34;;;17.17;100.00
37860;BME280;23698;52.014;5.190;2023-11-21T01:37:01;101069.31;;;17.53;100.00
37860;BME280;23698;52.014;5.190;2023-11-21T01:39:50;101079.56;;;17.58;100.00
37860;BME280;23698;52.014;5.190;2023-11-21T01:42:36;101081.09;;;17.23;100.00
37860;BME280;23698;52.014;5.190;2023-11-21T01:45:23;101078.53;;;17.40;100.00
37860;BME280;23698;52.014;5.190;2023-11-21T01:48:13;101074.94;;;17.58;100.00
37860;BME280;23698;52.014;5.190;2023-11-21T01:51:02;101078.00;;;17.50;100.00
37860;BME280;23698;52.014;5.190;2023-11-21T01:53:49;101089.47;;;17.28;100.00
37860;BME280;23698;52.014;5.190;2023-11-21T01:56:35;101088.28;;;17.66;100.00
37860;BME280;23698;52.014;5.190;2023-11-21T01:59:22;101085.91;;;17.70;100.00
37860;BME280;23698;52.014;5.190;2023-11-21T02:02:10;101090.56;;;17.88;100.00
37860;BME280;23698;52.014;5.190;2023-11-21T02:04:57;101097.16;;;17.01;100.00
37860;BME280;23698;52.014;5.190;2023-11-21T02:07:44;101105.16;;;17.21;100.00
37860;BME280;23698;52.014;5.190;2023-11-21T02:10:33;101103.72;;;18.09;100.00
37860;BME280;23698;52.014;5.190;2023-11-21T02:13:21;101110.84;;;17.99;100.00
37860;BME280;23698;52.014;5.190;2023-11-21T02:16:08;101119.06;;;17.99;100.00
37860;BME280;23698;52.014;5.190;2023-11-21T02:18:56;101118.94;;;17.63;100.00
37860;BME280;23698;52.014;5.190;2023-11-21T02:21:43;101125.34;;;18.29;100.00
37860;BME280;23698;52.014;5.190;2023-11-21T02:24:32;101121.97;;;17.85;100.00
37860;BME280;23698;52.014;5.190;2023-11-21T02:27:18;101119.84;;;18.41;100.00
37860;BME280;23698;52.014;5.190;2023-11-21T02:30:08;101121.28;;;18.67;100.00
37860;BME280;23698;52.014;5.190;2023-11-21T02:32:57;101125.25;;;18.60;100.00
37860;BME280;23698;52.014;5.190;2023-11-21T02:35:44;101126.69;;;18.51;100.00
37860;BME280;23698;52.014;5.190;2023-11-21T02:38:30;101129.69;;;18.96;100.00
37860;BME280;23698;52.014;5.190;2023-11-21T02:41:18;101122.88;;;18.87;100.00
37860;BME280;23698;52.014;5.190;2023-11-21T02:44:05;101125.56;;;18.40;100.00
37860;BME280;23698;52.014;5.190;2023-11-21T02:46:52;101126.53;;;18.34;100.00
37860;BME280;23698;52.014;5.190;2023-11-21T02:49:38;101126.94;;;18.84;100.00
37860;BME280;23698;52.014;5.190;2023-11-21T02:52:28;101134.78;;;18.81;100.00
37860;BME280;23698;52.014;5.190;2023-11-21T02:55:14;101120.81;;;19.06;100.00
37860;BME280;23698;52.014;5.190;2023-11-21T02:58:02;101125.63;;;19.39;100.00
37860;BME280;23698;52.014;5.190;2023-11-21T03:00:49;101126.38;;;19.35;100.00
37860;BME280;23698;52.014;5.190;2023-11-21T03:03:37;101127.00;;;18.30;100.00
37860;BME280;23698;52.014;5.190;2023-11-21T03:06:25;101127.28;;;19.00;100.00
37860;BME280;23698;52.014;5.190;2023-11-21T03:09:12;101125.44;;;19.29;100.00
37860;BME280;23698;52.014;5.190;2023-11-21T03:11:58;101129.06;;;18.71;100.00
37860;BME280;23698;52.014;5.190;2023-11-21T03:14:46;101126.06;;;18.72;100.00
37860;BME280;23698;52.014;5.190;2023-11-21T03:17:33;101134.50;;;19.30;100.00
37860;BME280;23698;52.014;5.190;2023-11-21T03:20:21;101132.53;;;19.01;100.00
37860;BME280;23698;52.014;5.190;2023-11-21T03:23:07;101133.34;;;19.14;100.00
37860;BME280;23698;52.014;5.190;2023-11-21T03:25:53;101140.44;;;18.86;100.00
37860;BME280;23698;52.014;5.190;2023-11-21T03:28:40;101141.00;;;19.12;100.00
37860;BME280;23698;52.014;5.190;2023-11-21T03:31:27;101135.34;;;19.30;100.00
37860;BME280;23698;52.014;5.190;2023-11-21T03:34:16;101136.69;;;19.28;100.00
37860;BME280;23698;52.014;5.190;2023-11-21T03:37:03;101136.50;;;18.82;100.00
37860;BME280;23698;52.014;5.190;2023-11-21T03:39:50;101135.09;;;18.25;100.00
37860;BME280;23698;52.014;5.190;2023-11-21T03:42:36;101132.66;;;18.95;100.00
37860;BME280;23698;52.014;5.190;2023-11-21T03:45:23;101136.91;;;19.26;100.00
37860;BME280;23698;52.014;5.190;2023-11-21T03:48:12;101142.13;;;19.39;100.00
37860;BME280;23698;52.014;5.190;2023-11-21T03:50:58;101141.66;;;19.31;100.00
37860;BME280;23698;52.014;5.190;2023-11-21T03:53:47;101153.19;;;19.16;100.00
37860;BME280;23698;52.014;5.190;2023-11-21T03:56:33;101145.66;;;19.11;100.00
37860;BME280;23698;52.014;5.190;2023-11-21T03:59:20;101150.63;;;19.38;100.00
37860;BME280;23698;52.014;5.190;2023-11-21T04:02:09;101153.44;;;19.55;100.00
37860;BME280;23698;52.014;5.190;2023-11-21T04:04:57;101159.00;;;19.31;100.00
37860;BME280;23698;52.014;5.190;2023-11-21T04:07:43;101173.09;;;19.35;100.00
37860;BME280;23698;52.014;5.190;2023-11-21T04:10:30;101163.13;;;19.05;100.00
37860;BME280;23698;52.014;5.190;2023-11-21T04:13:16;101164.25;;;19.85;100.00
37860;BME280;23698;52.014;5.190;2023-11-21T04:16:03;101172.78;;;19.60;100.00
37860;BME280;23698;52.014;5.190;2023-11-21T04:18:50;101178.50;;;19.30;100.00
37860;BME280;23698;52.014;5.190;2023-11-21T04:21:38;101179.56;;;19.29;100.00
37860;BME280;23698;52.014;5.190;2023-11-21T04:24:24;101180.78;;;19.61;100.00
37860;BME280;23698;52.014;5.190;2023-11-21T04:27:11;101181.63;;;18.98;100.00
37860;BME280;23698;52.014;5.190;2023-11-21T04:29:58;101187.53;;;19.94;100.00
37860;BME280;23698;52.014;5.190;2023-11-21T04:32:44;101200.38;;;19.65;100.00
37860;BME280;23698;52.014;5.190;2023-11-21T04:35:31;101194.78;;;20.00;100.00
37860;BME280;23698;52.014;5.190;2023-11-21T04:38:19;101201.59;;;20.27;100.00
37860;BME280;23698;52.014;5.190;2023-11-21T04:41:05;101209.63;;;19.99;100.00
37860;BME280;23698;52.014;5.190;2023-11-21T04:43:52;101213.94;;;20.24;100.00
37860;BME280;23698;52.014;5.190;2023-11-21T04:46:39;101222.22;;;20.58;100.00
37860;BME280;23698;52.014;5.190;2023-11-21T04:49:25;101215.22;;;20.50;100.00
37860;BME280;23698;52.014;5.190;2023-11-21T04:52:11;101221.38;;;20.69;100.00
37860;BME280;23698;52.014;5.190;2023-11-21T04:54:59;101226.38;;;20.72;100.00
37860;BME280;23698;52.014;5.190;2023-11-21T04:57:47;101222.69;;;20.67;100.00
37860;BME280;23698;52.014;5.190;2023-11-21T05:00:33;101230.84;;;20.62;100.00
37860;BME280;23698;52.014;5.190;2023-11-21T05:03:21;101230.41;;;20.53;100.00
37860;BME280;23698;52.014;5.190;2023-11-21T05:06:09;101230.50;;;20.58;100.00
37860;BME280;23698;52.014;5.190;2023-11-21T05:08:56;101235.50;;;20.61;100.00
37860;BME280;23698;52.014;5.190;2023-11-21T05:11:45;101248.34;;;20.67;100.00
37860;BME280;23698;52.014;5.190;2023-11-21T05:14:31;101246.56;;;20.78;100.00
37860;BME280;23698;52.014;5.190;2023-11-21T05:17:18;101253.50;;;20.81;100.00
37860;BME280;23698;52.014;5.190;2023-11-21T05:20:06;101251.75;;;20.74;100.00
37860;BME280;23698;52.014;5.190;2023-11-21T05:22:54;101247.56;;;20.26;100.00
37860;BME280;23698;52.014;5.190;2023-11-21T05:25:41;101240.81;;;19.65;100.00
37860;BME280;23698;52.014;5.190;2023-11-21T05:28:29;101252.44;;;19.43;100.00
37860;BME280;23698;52.014;5.190;2023-11-21T05:31:15;101253.09;;;19.86;100.00
37860;BME280;23698;52.014;5.190;2023-11-21T05:34:03;101255.47;;;19.94;100.00
37860;BME280;23698;52.014;5.190;2023-11-21T05:36:50;101249.44;;;20.09;100.00
37860;BME280;23698;52.014;5.190;2023-11-21T05:39:36;101258.22;;;20.23;100.00
37860;BME280;23698;52.014;5.190;2023-11-21T05:42:22;101254.56;;;20.63;100.00
37860;BME280;23698;52.014;5.190;2023-11-21T05:45:10;101257.59;;;20.04;100.00
37860;BME280;23698;52.014;5.190;2023-11-21T05:47:58;101262.34;;;19.56;100.00
37860;BME280;23698;52.014;5.190;2023-11-21T05:50:44;101273.97;;;20.10;100.00
37860;BME280;23698;52.014;5.190;2023-11-21T05:53:31;101275.69;;;19.88;100.00
37860;BME280;23698;52.014;5.190;2023-11-21T05:56:17;101276.88;;;20.32;100.00
37860;BME280;23698;52.014;5.190;2023-11-21T05:59:03;101281.09;;;19.71;100.00
37860;BME280;23698;52.014;5.190;2023-11-21T06:01:52;101278.69;;;19.86;100.00
37860;BME280;23698;52.014;5.190;2023-11-21T06:04:39;101292.69;;;20.25;100.00
37860;BME280;23698;52.014;5.190;2023-11-21T06:07:26;101291.59;;;20.55;100.00
37860;BME280;23698;52.014;5.190;2023-11-21T06:10:13;101296.94;;;20.04;100.00
37860;BME280;23698;52.014;5.190;2023-11-21T06:13:00;101306.19;;;20.27;100.00
37860;BME280;23698;52.014;5.190;2023-11-21T06:15:49;101313.97;;;20.59;100.00
37860;BME280;23698;52.014;5.190;2023-11-21T06:18:36;101310.97;;;20.31;100.00
37860;BME280;23698;52.014;5.190;2023-11-21T06:21:23;101319.78;;;20.91;100.00
37860;BME280;23698;52.014;5.190;2023-11-21T06:24:10;101323.31;;;21.20;100.00
37860;BME280;23698;52.014;5.190;2023-11-21T06:26:56;101324.31;;;21.31;100.00
37860;BME280;23698;52.014;5.190;2023-11-21T06:29:43;101323.31;;;21.37;100.00
37860;BME280;23698;52.014;5.190;2023-11-21T06:32:30;101323.72;;;20.78;100.00
37860;BME280;23698;52.014;5.190;2023-11-21T06:35:17;101324.97;;;21.21;100.00
37860;BME280;23698;52.014;5.190;2023-11-21T06:38:04;101326.22;;;20.51;100.00
37860;BME280;23698;52.014;5.190;2023-11-21T06:40:50;101328.00;;;21.03;100.00
37860;BME280;23698;52.014;5.190;2023-11-21T06:43:37;101332.31;;;21.16;100.00
37860;BME280;23698;52.014;5.190;2023-11-21T06:46:23;101330.22;;;20.89;100.00
37860;BME280;23698;52.014;5.190;2023-11-21T06:49:09;101326.31;;;21.19;100.00
37860;BME280;23698;52.014;5.190;2023-11-21T06:51:57;101337.31;;;20.68;100.00
37860;BME280;23698;52.014;5.190;2023-11-21T06:54:43;101342.25;;;20.83;100.00
37860;BME280;23698;52.014;5.190;2023-11-21T06:57:30;101354.47;;;21.21;100.00
37860;BME280;23698;52.014;5.190;2023-11-21T07:00:17;101352.00;;;20.73;100.00
37860;BME280;23698;52.014;5.190;2023-11-21T07:03:04;101361.50;;;21.11;100.00
37860;BME280;23698;52.014;5.190;2023-11-21T07:05:50;101366.75;;;21.13;100.00
37860;BME280;23698;52.014;5.190;2023-11-21T07:08:38;101373.34;;;21.12;100.00
37860;BME280;23698;52.014;5.190;2023-11-21T07:11:26;101372.53;;;21.28;100.00
37860;BME280;23698;52.014;5.190;2023-11-21T07:14:12;101382.81;;;21.16;100.00
37860;BME280;23698;52.014;5.190;2023-11-21T07:16:58;101384.00;;;20.91;100.00
37860;BME280;23698;52.014;5.190;2023-11-21T07:19:44;101384.31;;;21.24;100.00
37860;BME280;23698;52.014;5.190;2023-11-21T07:22:31;101394.56;;;21.11;100.00
37860;BME280;23698;52.014;5.190;2023-11-21T07:25:18;101383.59;;;21.00;100.00
37860;BME280;23698;52.014;5.190;2023-11-21T07:28:05;101392.47;;;21.19;100.00
37860;BME280;23698;52.014;5.190;2023-11-21T07:30:51;101393.69;;;21.57;100.00
37860;BME280;23698;52.014;5.190;2023-11-21T07:33:38;101400.69;;;21.64;100.00
37860;BME280;23698;52.014;5.190;2023-11-21T07:36:24;101396.34;;;21.68;100.00
37860;BME280;23698;52.014;5.190;2023-11-21T07:39:11;101403.59;;;21.75;100.00
37860;BME280;23698;52.014;5.190;2023-11-21T07:42:02;101398.03;;;21.53;100.00
37860;BME280;23698;52.014;5.190;2023-11-21T07:44:49;101398.44;;;21.61;100.00
37860;BME280;23698;52.014;5.190;2023-11-21T07:47:35;101403.91;;;21.10;100.00
37860;BME280;23698;52.014;5.190;2023-11-21T07:50:24;101412.59;;;21.19;100.00
37860;BME280;23698;52.014;5.190;2023-11-21T07:53:12;101414.78;;;20.71;100.00
37860;BME280;23698;52.014;5.190;2023-11-21T07:56:03;101413.00;;;20.94;100.00
37860;BME280;23698;52.014;5.190;2023-11-21T07:58:51;101418.53;;;21.57;100.00
37860;BME280;23698;52.014;5.190;2023-11-21T08:01:39;101428.69;;;21.56;100.00
37860;BME280;23698;52.014;5.190;2023-11-21T08:04:28;101430.13;;;20.96;100.00
37860;BME280;23698;52.014;5.190;2023-11-21T08:07:18;101437.19;;;21.38;100.00
37860;BME280;23698;52.014;5.190;2023-11-21T08:10:06;101445.56;;;20.68;100.00
37860;BME280;23698;52.014;5.190;2023-11-21T08:12:55;101446.59;;;21.08;100.00
37860;BME280;23698;52.014;5.190;2023-11-21T08:15:43;101456.53;;;21.72;100.00
37860;BME280;23698;52.014;5.190;2023-11-21T08:18:31;101456.81;;;21.07;100.00
37860;BME280;23698;52.014;5.190;2023-11-21T08:21:18;101458.63;;;20.61;100.00
37860;BME280;23698;52.014;5.190;2023-11-21T08:24:06;101471.53;;;21.30;100.00
37860;BME280;23698;52.014;5.190;2023-11-21T08:26:56;101475.22;;;20.14;100.00
37860;BME280;23698;52.014;5.190;2023-11-21T08:29:43;101475.84;;;19.92;100.00
37860;BME280;23698;52.014;5.190;2023-11-21T08:32:31;101490.75;;;20.96;100.00
37860;BME280;23698;52.014;5.190;2023-11-21T08:35:18;101482.47;;;20.55;100.00
37860;BME280;23698;52.014;5.190;2023-11-21T08:38:05;101490.84;;;18.94;100.00
37860;BME280;23698;52.014;5.190;2023-11-21T08:40:51;101497.63;;;18.17;100.00
37860;BME280;23698;52.014;5.190;2023-11-21T08:43:38;101495.88;;;18.04;100.00
37860;BME280;23698;52.014;5.190;2023-11-21T08:46:25;101497.59;;;19.10;100.00
37860;BME280;23698;52.014;5.190;2023-11-21T08:49:13;101494.00;;;18.60;100.00
37860;BME280;23698;52.014;5.190;2023-11-21T08:52:00;101498.03;;;18.95;100.00
37860;BME280;23698;52.014;5.190;2023-11-21T08:54:47;101503.91;;;19.29;100.00
37860;BME280;23698;52.014;5.190;2023-11-21T08:57:33;101508.31;;;19.72;100.00
37860;BME280;23698;52.014;5.190;2023-11-21T09:00:20;101511.63;;;19.62;100.00
37860;BME280;23698;52.014;5.190;2023-11-21T09:03:07;101512.66;;;19.07;100.00
37860;BME280;23698;52.014;5.190;2023-11-21T09:05:55;101516.34;;;19.31;100.00
37860;BME280;23698;52.014;5.190;2023-11-21T09:08:42;101526.28;;;20.57;100.00
37860;BME280;23698;52.014;5.190;2023-11-21T09:11:28;101531.69;;;20.28;100.00
37860;BME280;23698;52.014;5.190;2023-11-21T09:14:18;101537.56;;;20.08;100.00
37860;BME280;23698;52.014;5.190;2023-11-21T09:17:05;101539.47;;;20.67;100.00
37860;BME280;23698;52.014;5.190;2023-11-21T09:19:56;101548.09;;;20.47;100.00
37860;BME280;23698;52.014;5.190;2023-11-21T09:22:44;101552.31;;;21.02;100.00
37860;BME280;23698;52.014;5.190;2023-11-21T09:25:32;101554.78;;;20.39;100.00
37860;BME280;23698;52.014;5.190;2023-11-21T09:28:18;101556.06;;;21.24;100.00
37860;BME280;23698;52.014;5.190;2023-11-21T09:31:05;101552.44;;;21.36;100.00
37860;BME280;23698;52.014;5.190;2023-11-21T09:33:54;101560.31;;;20.63;100.00
37860;BME280;23698;52.014;5.190;2023-11-21T09:36:40;101570.13;;;20.23;100.00
37860;BME280;23698;52.014;5.190;2023-11-21T09:39:28;101574.69;;;19.33;100.00
37860;BME280;23698;52.014;5.190;2023-11-21T09:42:19;101569.22;;;19.45;100.00
37860;BME280;23698;52.014;5.190;2023-11-21T09:45:15;101581.75;;;20.25;100.00
37860;BME280;23698;52.014;5.190;2023-11-21T09:48:05;101580.13;;;19.82;100.00
37860;BME280;23698;52.014;5.190;2023-11-21T09:50:53;101596.50;;;19.47;100.00
37860;BME280;23698;52.014;5.190;2023-11-21T09:53:42;101591.78;;;20.31;100.00
37860;BME280;23698;52.014;5.190;2023-11-21T09:56:32;101608.88;;;19.37;100.00
37860;BME280;23698;52.014;5.190;2023-11-21T09:59:18;101609.34;;;19.65;100.00
37860;BME280;23698;52.014;5.190;2023-11-21T10:02:07;101612.28;;;18.59;100.00
37860;BME280;23698;52.014;5.190;2023-11-21T10:04:58;101608.69;;;19.02;100.00
37860;BME280;23698;52.014;5.190;2023-11-21T10:07:46;101617.84;;;19.63;100.00
37860;BME280;23698;52.014;5.190;2023-11-21T10:10:33;101622.34;;;20.77;100.00
37860;BME280;23698;52.014;5.190;2023-11-21T10:13:23;101631.72;;;19.98;100.00
37860;BME280;23698;52.014;5.190;2023-11-21T10:16:13;101624.13;;;20.24;100.00
37860;BME280;23698;52.014;5.190;2023-11-21T10:19:01;101632.94;;;19.23;100.00
37860;BME280;23698;52.014;5.190;2023-11-21T10:21:56;101635.25;;;19.57;100.00
37860;BME280;23698;52.014;5.190;2023-11-21T10:24:43;101651.09;;;19.43;100.00
37860;BME280;23698;52.014;5.190;2023-11-21T10:27:38;101645.19;;;19.88;100.00
37860;BME280;23698;52.014;5.190;2023-11-21T10:30:32;101651.00;;;18.76;100.00
37860;BME280;23698;52.014;5.190;2023-11-21T10:33:27;101661.00;;;18.70;100.00
37860;BME280;23698;52.014;5.190;2023-11-21T10:36:13;101660.81;;;19.27;100.00
37860;BME280;23698;52.014;5.190;2023-11-21T10:39:14;101670.56;;;18.61;100.00
37860;BME280;23698;52.014;5.190;2023-11-21T10:42:03;101676.63;;;17.81;100.00
37860;BME280;23698;52.014;5.190;2023-11-21T10:44:50;101687.25;;;18.09;100.00
37860;BME280;23698;52.014;5.190;2023-11-21T10:47:39;101684.50;;;17.70;100.00
37860;BME280;23698;52.014;5.190;2023-11-21T10:50:26;101698.97;;;17.32;100.00
37860;BME280;23698;52.014;5.190;2023-11-21T10:53:13;101694.78;;;17.30;100.00
37860;BME280;23698;52.014;5.190;2023-11-21T10:56:05;101693.41;;;16.94;100.00
37860;BME280;23698;52.014;5.190;2023-11-21T10:58:52;101707.56;;;18.33;100.00
37860;BME280;23698;52.014;5.190;2023-11-21T11:01:39;101704.66;;;17.44;100.00
37860;BME280;23698;52.014;5.190;2023-11-21T11:04:27;101708.69;;;17.87;100.00
37860;BME280;23698;52.014;5.190;2023-11-21T11:07:15;101703.28;;;18.37;100.00
37860;BME280;23698;52.014;5.190;2023-11-21T11:10:02;101717.81;;;19.69;100.00
37860;BME280;23698;52.014;5.190;2023-11-21T11:12:49;101714.19;;;19.19;100.00
37860;BME280;23698;52.014;5.190;2023-11-21T11:15:38;101723.28;;;19.38;100.00
37860;BME280;23698;52.014;5.190;2023-11-21T11:18:25;101717.72;;;18.58;100.00
37860;BME280;23698;52.014;5.190;2023-11-21T11:21:20;101724.94;;;19.58;100.00
37860;BME280;23698;52.014;5.190;2023-11-21T11:24:21;101721.34;;;19.02;100.00
37860;BME280;23698;52.014;5.190;2023-11-21T11:27:21;101724.69;;;18.54;100.00
37860;BME280;23698;52.014;5.190;2023-11-21T11:30:19;101737.38;;;19.05;100.00
37860;BME280;23698;52.014;5.190;2023-11-21T11:33:20;101737.53;;;19.84;100.00
37860;BME280;23698;52.014;5.190;2023-11-21T11:36:19;101735.19;;;20.84;100.00
37860;BME280;23698;52.014;5.190;2023-11-21T11:39:29;101738.75;;;20.61;100.00
37860;BME280;23698;52.014;5.190;2023-11-21T11:42:17;101737.41;;;20.09;100.00
37860;BME280;23698;52.014;5.190;2023-11-21T11:45:17;101742.88;;;19.60;100.00
37860;BME280;23698;52.014;5.190;2023-11-21T11:48:05;101751.25;;;19.54;100.00
37860;BME280;23698;52.014;5.190;2023-11-21T11:51:02;101753.97;;;19.91;100.00
37860;BME280;23698;52.014;5.190;2023-11-21T11:53:51;101762.75;;;19.81;100.00
37860;BME280;23698;52.014;5.190;2023-11-21T11:56:39;101754.41;;;19.32;100.00
37860;BME280;23698;52.014;5.190;2023-11-21T11:59:25;101761.69;;;18.76;100.00
37860;BME280;23698;52.014;5.190;2023-11-21T12:02:12;101766.63;;;18.99;100.00
37860;BME280;23698;52.014;5.190;2023-11-21T12:05:00;101771.84;;;19.63;100.00
37860;BME280;23698;52.014;5.190;2023-11-21T12:07:49;101776.91;;;19.04;100.00
37860;BME280;23698;52.014;5.190;2023-11-21T12:10:39;101766.56;;;17.65;100.00
37860;BME280;23698;52.014;5.190;2023-11-21T12:13:27;101784.06;;;19.67;100.00
37860;BME280;23698;52.014;5.190;2023-11-21T12:16:14;101777.34;;;19.26;100.00
37860;BME280;23698;52.014;5.190;2023-11-21T12:19:01;101782.81;;;20.18;100.00
37860;BME280;23698;52.014;5.190;2023-11-21T12:21:48;101781.63;;;20.26;100.00
37860;BME280;23698;52.014;5.190;2023-11-21T12:24:35;101789.56;;;20.34;100.00
37860;BME280;23698;52.014;5.190;2023-11-21T12:27:23;101794.69;;;20.00;100.00
37860;BME280;23698;52.014;5.190;2023-11-21T12:30:10;101790.69;;;20.45;100.00
37860;BME280;23698;52.014;5.190;2023-11-21T12:33:00;101789.59;;;20.16;100.00
37860;BME280;23698;52.014;5.190;2023-11-21T12:35:47;101793.97;;;20.24;100.00
37860;BME280;23698;52.014;5.190;2023-11-21T12:38:34;101799.91;;;20.93;100.00
37860;BME280;23698;52.014;5.190;2023-11-21T12:41:20;101803.25;;;20.53;100.00
37860;BME280;23698;52.014;5.190;2023-11-21T12:44:12;101806.50;;;21.27;100.00
37860;BME280;23698;52.014;5.190;2023-11-21T12:47:00;101809.03;;;20.21;100.00
37860;BME280;23698;52.014;5.190;2023-11-21T12:49:47;101813.41;;;20.10;100.00
37860;BME280;23698;52.014;5.190;2023-11-21T12:52:33;101818.56;;;20.67;100.00
37860;BME280;23698;52.014;5.190;2023-11-21T12:55:21;101819.53;;;18.56;100.00
37860;BME280;23698;52.014;5.190;2023-11-21T12:58:08;101816.00;;;18.74;100.00
37860;BME280;23698;52.014;5.190;2023-11-21T13:00:59;101821.66;;;18.16;100.00
37860;BME280;23698;52.014;5.190;2023-11-21T13:03:50;101822.72;;;18.78;100.00
37860;BME280;23698;52.014;5.190;2023-11-21T13:06:36;101832.03;;;19.09;100.00
37860;BME280;23698;52.014;5.190;2023-11-21T13:09:26;101835.00;;;19.33;100.00
37860;BME280;23698;52.014;5.190;2023-11-21T13:12:13;101842.16;;;19.77;100.00
37860;BME280;23698;52.014;5.190;2023-11-21T13:15:03;101843.75;;;20.52;100.00
37860;BME280;23698;52.014;5.190;2023-11-21T13:17:53;101841.50;;;19.57;100.00
37860;BME280;23698;52.014;5.190;2023-11-21T13:20:41;101851.19;;;20.52;100.00
37860;BME280;23698;52.014;5.190;2023-11-21T13:23:28;101857.44;;;20.29;100.00
37860;BME280;23698;52.014;5.190;2023-11-21T13:26:15;101850.16;;;20.34;100.00
37860;BME280;23698;52.014;5.190;2023-11-21T13:29:02;101850.06;;;21.37;100.00
37860;BME280;23698;52.014;5.190;2023-11-21T13:31:50;101853.22;;;20.56;100.00
37860;BME280;23698;52.014;5.190;2023-11-21T13:34:39;101859.09;;;20.90;100.00
37860;BME280;23698;52.014;5.190;2023-11-21T13:37:30;101860.66;;;20.98;100.00
37860;BME280;23698;52.014;5.190;2023-11-21T13:40:20;101859.03;;;21.21;100.00
37860;BME280;23698;52.014;5.190;2023-11-21T13:43:07;101869.81;;;20.38;100.00
37860;BME280;23698;52.014;5.190;2023-11-21T13:45:54;101875.63;;;20.90;100.00
37860;BME280;23698;52.014;5.190;2023-11-21T13:48:45;101884.25;;;20.82;100.00
37860;BME280;23698;52.014;5.190;2023-11-21T13:51:38;101878.84;;;21.65;100.00
37860;BME280;23698;52.014;5.190;2023-11-21T13:54:28;101877.19;;;20.98;100.00
37860;BME280;23698;52.014;5.190;2023-11-21T13:57:14;101879.28;;;21.26;100.00
37860;BME280;23698;52.014;5.190;2023-11-21T14:00:01;101873.81;;;21.62;100.00
37860;BME280;23698;52.014;5.190;2023-11-21T14:02:51;101879.56;;;21.60;100.00
37860;BME280;23698;52.014;5.190;2023-11-21T14:05:37;101891.03;;;20.49;100.00
37860;BME280;23698;52.014;5.190;2023-11-21T14:08:26;101892.75;;;19.01;100.00
37860;BME280;23698;52.014;5.190;2023-11-21T14:11:13;101899.94;;;18.25;100.00
37860;BME280;23698;52.014;5.190;2023-11-21T14:14:03;101907.09;;;18.71;100.00
37860;BME280;23698;52.014;5.190;2023-11-21T14:16:50;101906.19;;;18.91;100.00
37860;BME280;23698;52.014;5.190;2023-11-21T14:19:37;101906.19;;;17.47;100.00
37860;BME280;23698;52.014;5.190;2023-11-21T14:22:26;101916.34;;;18.38;100.00
37860;BME280;23698;52.014;5.190;2023-11-21T14:25:15;101921.75;;;17.80;100.00
37860;BME280;23698;52.014;5.190;2023-11-21T14:28:02;101922.88;;;18.89;100.00